sensor_id;sensor_type;location;lat;lon;timestamp;P1;durP1;ratioP1;P2;durP2;ratioP2
56824;SDS011;42705;50.326;18.772;2023-12-07T00:04:28;94.50;;;37.40;;
56824;SDS011;42705;50.326;18.772;2023-12-07T00:09:50;95.10;;;39.50;;
56824;SDS011;42705;50.326;18.772;2023-12-07T00:15:13;105.80;;;42.30;;
56824;SDS011;42705;50.326;18.772;2023-12-07T00:20:35;108.50;;;40.20;;
56824;SDS011;42705;50.326;18.772;2023-12-07T00:25:57;103.80;;;40.90;;
56824;SDS011;42705;50.326;18.772;2023-12-07T00:31:19;109.10;;;39.80;;
56824;SDS011;42705;50.326;18.772;2023-12-07T00:36:41;92.60;;;35.10;;
56824;SDS011;42705;50.326;18.772;2023-12-07T00:42:03;82.70;;;32.80;;
56824;SDS011;42705;50.326;18.772;2023-12-07T00:47:25;83.20;;;34.40;;
56824;SDS011;42705;50.326;18.772;2023-12-07T00:52:47;79.30;;;31.70;;
56824;SDS011;42705;50.326;18.772;2023-12-07T00:58:09;77.50;;;31.90;;
56824;SDS011;42705;50.326;18.772;2023-12-07T01:03:31;76.60;;;31.20;;
56824;SDS011;42705;50.326;18.772;2023-12-07T01:08:53;76.30;;;30.90;;
56824;SDS011;42705;50.326;18.772;2023-12-07T01:14:16;74.60;;;30.80;;
56824;SDS011;42705;50.326;18.772;2023-12-07T01:19:39;85.10;;;32.90;;
56824;SDS011;42705;50.326;18.772;2023-12-07T01:25:00;75.10;;;30.60;;
56824;SDS011;42705;50.326;18.772;2023-12-07T01:30:22;73.20;;;32.50;;
56824;SDS011;42705;50.326;18.772;2023-12-07T01:35:44;75.60;;;30.10;;
56824;SDS011;42705;50.326;18.772;2023-12-07T01:41:06;75.40;;;30.30;;
56824;SDS011;42705;50.326;18.772;2023-12-07T01:46:28;71.50;;;30.40;;
56824;SDS011;42705;50.326;18.772;2023-12-07T01:51:49;82.60;;;34.40;;
56824;SDS011;42705;50.326;18.772;2023-12-07T01:57:11;86.30;;;35.20;;
56824;SDS011;42705;50.326;18.772;2023-12-07T02:02:33;90.10;;;35.50;;
56824;SDS011;42705;50.326;18.772;2023-12-07T02:07:56;105.20;;;40.40;;
56824;SDS011;42705;50.326;18.772;2023-12-07T02:13:18;106.70;;;40.40;;
56824;SDS011;42705;50.326;18.772;2023-12-07T02:18:44;102.90;;;38.20;;
56824;SDS011;42705;50.326;18.772;2023-12-07T02:24:22;90.10;;;35.60;;
56824;SDS011;42705;50.326;18.772;2023-12-07T02:29:48;103.90;;;38.50;;
56824;SDS011;42705;50.326;18.772;2023-12-07T02:35:11;102.30;;;39.90;;
56824;SDS011;42705;50.326;18.772;2023-12-07T02:40:34;102.70;;;40.30;;
56824;SDS011;42705;50.326;18.772;2023-12-07T02:45:56;110.60;;;42.30;;
56824;SDS011;42705;50.326;18.772;2023-12-07T02:51:19;102.10;;;38.70;;
56824;SDS011;42705;50.326;18.772;2023-12-07T02:56:41;103.60;;;39.30;;
56824;SDS011;42705;50.326;18.772;2023-12-07T03:07:28;102.30;;;37.00;;
56824;SDS011;42705;50.326;18.772;2023-12-07T03:12:49;92.70;;;34.50;;
56824;SDS011;42705;50.326;18.772;2023-12-07T03:18:11;101.20;;;37.70;;
56824;SDS011;42705;50.326;18.772;2023-12-07T03:23:33;103.50;;;35.20;;
56824;SDS011;42705;50.326;18.772;2023-12-07T03:28:55;92.40;;;31.80;;
56824;SDS011;42705;50.326;18.772;2023-12-07T03:34:17;85.80;;;32.40;;
56824;SDS011;42705;50.326;18.772;2023-12-07T03:39:38;84.90;;;32.10;;
56824;SDS011;42705;50.326;18.772;2023-12-07T03:45:00;91.50;;;31.40;;
56824;SDS011;42705;50.326;18.772;2023-12-07T03:50:23;93.90;;;32.80;;
56824;SDS011;42705;50.326;18.772;2023-12-07T03:55:45;97.70;;;34.20;;
56824;SDS011;42705;50.326;18.772;2023-12-07T04:01:07;94.20;;;34.50;;
56824;SDS011;42705;50.326;18.772;2023-12-07T04:06:29;90.80;;;35.30;;
56824;SDS011;42705;50.326;18.772;2023-12-07T04:11:51;93.40;;;35.80;;
56824;SDS011;42705;50.326;18.772;2023-12-07T04:17:13;88.00;;;35.00;;
56824;SDS011;42705;50.326;18.772;2023-12-07T04:22:35;97.70;;;37.00;;
56824;SDS011;42705;50.326;18.772;2023-12-07T04:27:57;95.70;;;36.40;;
56824;SDS011;42705;50.326;18.772;2023-12-07T04:33:19;110.10;;;40.40;;
56824;SDS011;42705;50.326;18.772;2023-12-07T04:38:40;98.20;;;40.40;;
56824;SDS011;42705;50.326;18.772;2023-12-07T04:44:02;101.00;;;38.60;;
56824;SDS011;42705;50.326;18.772;2023-12-07T04:49:24;116.60;;;42.60;;
56824;SDS011;42705;50.326;18.772;2023-12-07T04:54:46;107.70;;;39.80;;
56824;SDS011;42705;50.326;18.772;2023-12-07T05:00:08;102.30;;;39.20;;
56824;SDS011;42705;50.326;18.772;2023-12-07T05:10:53;89.50;;;36.30;;
56824;SDS011;42705;50.326;18.772;2023-12-07T05:16:15;89.50;;;35.30;;
56824;SDS011;42705;50.326;18.772;2023-12-07T05:21:37;96.20;;;36.80;;
56824;SDS011;42705;50.326;18.772;2023-12-07T05:26:59;84.00;;;36.10;;
56824;SDS011;42705;50.326;18.772;2023-12-07T05:32:21;90.10;;;34.80;;
56824;SDS011;42705;50.326;18.772;2023-12-07T05:37:43;89.70;;;37.50;;
56824;SDS011;42705;50.326;18.772;2023-12-07T05:43:05;99.60;;;38.50;;
56824;SDS011;42705;50.326;18.772;2023-12-07T05:48:27;96.30;;;36.50;;
56824;SDS011;42705;50.326;18.772;2023-12-07T05:53:48;101.00;;;38.60;;
56824;SDS011;42705;50.326;18.772;2023-12-07T05:59:11;100.30;;;39.50;;
56824;SDS011;42705;50.326;18.772;2023-12-07T06:04:32;107.90;;;40.10;;
56824;SDS011;42705;50.326;18.772;2023-12-07T06:09:54;112.90;;;42.20;;
56824;SDS011;42705;50.326;18.772;2023-12-07T06:15:17;112.00;;;43.10;;
56824;SDS011;42705;50.326;18.772;2023-12-07T06:20:39;124.10;;;45.40;;
56824;SDS011;42705;50.326;18.772;2023-12-07T06:26:03;117.40;;;44.50;;
56824;SDS011;42705;50.326;18.772;2023-12-07T06:31:26;105.10;;;41.40;;
56824;SDS011;42705;50.326;18.772;2023-12-07T06:36:48;102.00;;;40.90;;
56824;SDS011;42705;50.326;18.772;2023-12-07T06:42:10;114.40;;;42.50;;
56824;SDS011;42705;50.326;18.772;2023-12-07T06:47:32;111.60;;;41.10;;
56824;SDS011;42705;50.326;18.772;2023-12-07T06:52:54;110.70;;;41.80;;
56824;SDS011;42705;50.326;18.772;2023-12-07T06:58:16;108.90;;;42.40;;
56824;SDS011;42705;50.326;18.772;2023-12-07T07:03:38;98.80;;;38.10;;
56824;SDS011;42705;50.326;18.772;2023-12-07T07:08:59;107.70;;;41.90;;
56824;SDS011;42705;50.326;18.772;2023-12-07T07:14:21;111.10;;;44.40;;
56824;SDS011;42705;50.326;18.772;2023-12-07T07:19:43;123.20;;;47.50;;
56824;SDS011;42705;50.326;18.772;2023-12-07T07:25:05;123.40;;;48.40;;
56824;SDS011;42705;50.326;18.772;2023-12-07T07:30:27;128.10;;;48.40;;
56824;SDS011;42705;50.326;18.772;2023-12-07T07:35:49;125.50;;;45.90;;
56824;SDS011;42705;50.326;18.772;2023-12-07T07:41:11;125.10;;;46.60;;
56824;SDS011;42705;50.326;18.772;2023-12-07T07:46:33;115.00;;;43.50;;
56824;SDS011;42705;50.326;18.772;2023-12-07T07:51:54;109.20;;;42.40;;
56824;SDS011;42705;50.326;18.772;2023-12-07T07:57:18;101.90;;;40.90;;
56824;SDS011;42705;50.326;18.772;2023-12-07T08:02:40;117.20;;;43.50;;
56824;SDS011;42705;50.326;18.772;2023-12-07T08:08:02;102.70;;;43.60;;
56824;SDS011;42705;50.326;18.772;2023-12-07T08:13:24;111.80;;;44.80;;
56824;SDS011;42705;50.326;18.772;2023-12-07T08:18:45;118.00;;;44.30;;
56824;SDS011;42705;50.326;18.772;2023-12-07T08:24:07;115.00;;;42.60;;
56824;SDS011;42705;50.326;18.772;2023-12-07T08:29:30;111.80;;;43.30;;
56824;SDS011;42705;50.326;18.772;2023-12-07T08:34:52;113.80;;;44.10;;
56824;SDS011;42705;50.326;18.772;2023-12-07T08:40:14;111.10;;;43.40;;
56824;SDS011;42705;50.326;18.772;2023-12-07T08:45:39;123.90;;;44.70;;
56824;SDS011;42705;50.326;18.772;2023-12-07T08:51:01;113.60;;;44.90;;
56824;SDS011;42705;50.326;18.772;2023-12-07T08:56:23;119.00;;;43.90;;
56824;SDS011;42705;50.326;18.772;2023-12-07T09:01:45;129.10;;;45.70;;
56824;SDS011;42705;50.326;18.772;2023-12-07T09:07:07;130.50;;;47.90;;
56824;SDS011;42705;50.326;18.772;2023-12-07T09:12:30;115.90;;;43.50;;
56824;SDS011;42705;50.326;18.772;2023-12-07T09:17:52;120.60;;;46.70;;
56824;SDS011;42705;50.326;18.772;2023-12-07T09:23:14;112.70;;;44.00;;
56824;SDS011;42705;50.326;18.772;2023-12-07T09:28:37;126.20;;;47.20;;
56824;SDS011;42705;50.326;18.772;2023-12-07T09:34:01;116.80;;;46.20;;
56824;SDS011;42705;50.326;18.772;2023-12-07T09:39:23;118.30;;;45.50;;
56824;SDS011;42705;50.326;18.772;2023-12-07T09:44:44;123.80;;;45.90;;
56824;SDS011;42705;50.326;18.772;2023-12-07T09:50:06;116.40;;;44.40;;
56824;SDS011;42705;50.326;18.772;2023-12-07T09:55:29;115.60;;;42.90;;
56824;SDS011;42705;50.326;18.772;2023-12-07T10:00:52;115.30;;;43.80;;
56824;SDS011;42705;50.326;18.772;2023-12-07T10:06:14;116.20;;;44.30;;
56824;SDS011;42705;50.326;18.772;2023-12-07T10:11:37;116.50;;;43.70;;
56824;SDS011;42705;50.326;18.772;2023-12-07T10:16:59;107.40;;;43.00;;
56824;SDS011;42705;50.326;18.772;2023-12-07T10:22:22;118.60;;;44.90;;
56824;SDS011;42705;50.326;18.772;2023-12-07T10:27:43;114.00;;;43.90;;
56824;SDS011;42705;50.326;18.772;2023-12-07T10:33:06;107.70;;;42.10;;
56824;SDS011;42705;50.326;18.772;2023-12-07T10:38:28;116.90;;;43.20;;
56824;SDS011;42705;50.326;18.772;2023-12-07T10:43:53;110.90;;;44.90;;
56824;SDS011;42705;50.326;18.772;2023-12-07T10:49:17;120.70;;;44.20;;
56824;SDS011;42705;50.326;18.772;2023-12-07T11:00:26;111.60;;;42.60;;
56824;SDS011;42705;50.326;18.772;2023-12-07T11:11:15;103.00;;;38.00;;
56824;SDS011;42705;50.326;18.772;2023-12-07T11:16:51;109.10;;;40.70;;
56824;SDS011;42705;50.326;18.772;2023-12-07T11:22:15;95.60;;;36.70;;
56824;SDS011;42705;50.326;18.772;2023-12-07T11:27:37;103.10;;;39.10;;
56824;SDS011;42705;50.326;18.772;2023-12-07T11:32:59;88.70;;;36.20;;
56824;SDS011;42705;50.326;18.772;2023-12-07T11:38:22;101.00;;;38.00;;
56824;SDS011;42705;50.326;18.772;2023-12-07T11:43:44;92.10;;;38.10;;
56824;SDS011;42705;50.326;18.772;2023-12-07T11:49:07;95.30;;;38.60;;
56824;SDS011;42705;50.326;18.772;2023-12-07T11:54:32;85.50;;;36.70;;
56824;SDS011;42705;50.326;18.772;2023-12-07T11:59:54;89.60;;;36.60;;
56824;SDS011;42705;50.326;18.772;2023-12-07T12:05:15;95.80;;;36.90;;
56824;SDS011;42705;50.326;18.772;2023-12-07T12:10:41;96.30;;;38.20;;
56824;SDS011;42705;50.326;18.772;2023-12-07T12:16:04;102.40;;;37.60;;
56824;SDS011;42705;50.326;18.772;2023-12-07T12:21:26;97.50;;;39.30;;
56824;SDS011;42705;50.326;18.772;2023-12-07T12:26:48;96.00;;;40.10;;
56824;SDS011;42705;50.326;18.772;2023-12-07T12:32:11;96.50;;;38.30;;
56824;SDS011;42705;50.326;18.772;2023-12-07T12:37:34;100.90;;;40.00;;
56824;SDS011;42705;50.326;18.772;2023-12-07T12:42:56;91.00;;;38.80;;
56824;SDS011;42705;50.326;18.772;2023-12-07T12:48:17;100.40;;;39.50;;
56824;SDS011;42705;50.326;18.772;2023-12-07T12:53:46;94.30;;;40.90;;
56824;SDS011;42705;50.326;18.772;2023-12-07T12:59:08;100.20;;;38.80;;
56824;SDS011;42705;50.326;18.772;2023-12-07T13:04:30;88.40;;;38.80;;
56824;SDS011;42705;50.326;18.772;2023-12-07T13:09:52;97.80;;;40.50;;
56824;SDS011;42705;50.326;18.772;2023-12-07T13:15:16;97.10;;;37.50;;
56824;SDS011;42705;50.326;18.772;2023-12-07T13:20:38;98.40;;;38.10;;
56824;SDS011;42705;50.326;18.772;2023-12-07T13:26:00;98.90;;;38.10;;
56824;SDS011;42705;50.326;18.772;2023-12-07T13:31:22;89.00;;;36.90;;
56824;SDS011;42705;50.326;18.772;2023-12-07T13:36:44;97.70;;;39.60;;
56824;SDS011;42705;50.326;18.772;2023-12-07T13:42:06;91.70;;;38.50;;
56824;SDS011;42705;50.326;18.772;2023-12-07T13:47:30;88.70;;;37.40;;
56824;SDS011;42705;50.326;18.772;2023-12-07T13:52:53;92.10;;;36.70;;
56824;SDS011;42705;50.326;18.772;2023-12-07T13:58:14;92.20;;;37.10;;
56824;SDS011;42705;50.326;18.772;2023-12-07T14:03:36;98.70;;;39.10;;
56824;SDS011;42705;50.326;18.772;2023-12-07T14:08:59;103.10;;;41.80;;
56824;SDS011;42705;50.326;18.772;2023-12-07T14:14:20;112.90;;;45.90;;
56824;SDS011;42705;50.326;18.772;2023-12-07T14:19:42;107.70;;;43.80;;
56824;SDS011;42705;50.326;18.772;2023-12-07T14:25:05;91.30;;;37.20;;
56824;SDS011;42705;50.326;18.772;2023-12-07T14:30:27;85.50;;;37.50;;
56824;SDS011;42705;50.326;18.772;2023-12-07T14:35:49;86.40;;;34.10;;
56824;SDS011;42705;50.326;18.772;2023-12-07T14:41:11;85.30;;;35.90;;
56824;SDS011;42705;50.326;18.772;2023-12-07T14:46:34;86.30;;;37.40;;
56824;SDS011;42705;50.326;18.772;2023-12-07T14:51:56;72.60;;;31.90;;
56824;SDS011;42705;50.326;18.772;2023-12-07T14:57:20;75.50;;;31.30;;
56824;SDS011;42705;50.326;18.772;2023-12-07T15:02:42;77.10;;;31.10;;
56824;SDS011;42705;50.326;18.772;2023-12-07T15:08:04;79.40;;;33.10;;
56824;SDS011;42705;50.326;18.772;2023-12-07T15:13:27;87.20;;;35.80;;
56824;SDS011;42705;50.326;18.772;2023-12-07T15:18:49;77.40;;;35.00;;
56824;SDS011;42705;50.326;18.772;2023-12-07T15:24:11;98.40;;;40.20;;
56824;SDS011;42705;50.326;18.772;2023-12-07T15:29:34;97.10;;;41.00;;
56824;SDS011;42705;50.326;18.772;2023-12-07T15:34:56;100.50;;;41.50;;
56824;SDS011;42705;50.326;18.772;2023-12-07T15:40:18;108.70;;;45.30;;
56824;SDS011;42705;50.326;18.772;2023-12-07T15:45:40;106.00;;;42.10;;
56824;SDS011;42705;50.326;18.772;2023-12-07T15:51:02;104.90;;;44.30;;
56824;SDS011;42705;50.326;18.772;2023-12-07T15:56:24;105.10;;;43.40;;
56824;SDS011;42705;50.326;18.772;2023-12-07T16:01:49;102.60;;;42.50;;
56824;SDS011;42705;50.326;18.772;2023-12-07T16:07:12;99.90;;;41.10;;
56824;SDS011;42705;50.326;18.772;2023-12-07T16:12:36;92.60;;;38.20;;
56824;SDS011;42705;50.326;18.772;2023-12-07T16:17:58;89.30;;;38.10;;
56824;SDS011;42705;50.326;18.772;2023-12-07T16:23:23;87.40;;;36.20;;
56824;SDS011;42705;50.326;18.772;2023-12-07T16:28:45;91.10;;;38.10;;
56824;SDS011;42705;50.326;18.772;2023-12-07T16:34:07;88.60;;;38.80;;
56824;SDS011;42705;50.326;18.772;2023-12-07T16:39:31;90.50;;;37.30;;
56824;SDS011;42705;50.326;18.772;2023-12-07T16:44:53;92.80;;;38.70;;
56824;SDS011;42705;50.326;18.772;2023-12-07T16:50:17;99.50;;;38.80;;
56824;SDS011;42705;50.326;18.772;2023-12-07T16:55:40;92.00;;;38.90;;
56824;SDS011;42705;50.326;18.772;2023-12-07T17:01:09;96.20;;;41.30;;
56824;SDS011;42705;50.326;18.772;2023-12-07T17:06:31;96.30;;;44.30;;
56824;SDS011;42705;50.326;18.772;2023-12-07T17:11:54;105.40;;;45.90;;
56824;SDS011;42705;50.326;18.772;2023-12-07T17:17:16;100.00;;;45.50;;
56824;SDS011;42705;50.326;18.772;2023-12-07T17:22:39;103.90;;;42.60;;
56824;SDS011;42705;50.326;18.772;2023-12-07T17:28:01;104.50;;;43.30;;
56824;SDS011;42705;50.326;18.772;2023-12-07T17:33:24;102.60;;;44.20;;
56824;SDS011;42705;50.326;18.772;2023-12-07T17:38:46;103.30;;;46.70;;
56824;SDS011;42705;50.326;18.772;2023-12-07T17:44:08;121.60;;;49.70;;
56824;SDS011;42705;50.326;18.772;2023-12-07T17:49:31;117.60;;;50.70;;
56824;SDS011;42705;50.326;18.772;2023-12-07T18:00:16;120.30;;;51.00;;
56824;SDS011;42705;50.326;18.772;2023-12-07T18:05:38;127.30;;;54.20;;
56824;SDS011;42705;50.326;18.772;2023-12-07T18:11:00;123.40;;;51.60;;
56824;SDS011;42705;50.326;18.772;2023-12-07T18:16:23;127.40;;;56.50;;
56824;SDS011;42705;50.326;18.772;2023-12-07T18:21:45;123.90;;;51.70;;
56824;SDS011;42705;50.326;18.772;2023-12-07T18:27:09;135.30;;;56.60;;
56824;SDS011;42705;50.326;18.772;2023-12-07T18:32:31;131.40;;;56.10;;
56824;SDS011;42705;50.326;18.772;2023-12-07T18:37:53;124.10;;;54.40;;
56824;SDS011;42705;50.326;18.772;2023-12-07T18:43:15;122.00;;;53.70;;
56824;SDS011;42705;50.326;18.772;2023-12-07T18:48:37;120.20;;;52.40;;
56824;SDS011;42705;50.326;18.772;2023-12-07T18:53:59;140.30;;;58.50;;
56824;SDS011;42705;50.326;18.772;2023-12-07T18:59:22;147.20;;;62.80;;
56824;SDS011;42705;50.326;18.772;2023-12-07T19:04:45;137.90;;;61.00;;
56824;SDS011;42705;50.326;18.772;2023-12-07T19:10:08;146.10;;;59.60;;
56824;SDS011;42705;50.326;18.772;2023-12-07T19:15:30;134.00;;;58.00;;
56824;SDS011;42705;50.326;18.772;2023-12-07T19:20:53;137.70;;;59.50;;
56824;SDS011;42705;50.326;18.772;2023-12-07T19:26:15;136.40;;;56.90;;
56824;SDS011;42705;50.326;18.772;2023-12-07T19:31:37;128.00;;;54.30;;
56824;SDS011;42705;50.326;18.772;2023-12-07T19:37:00;127.30;;;54.20;;
56824;SDS011;42705;50.326;18.772;2023-12-07T19:42:26;127.70;;;55.30;;
56824;SDS011;42705;50.326;18.772;2023-12-07T19:47:48;116.20;;;49.80;;
56824;SDS011;42705;50.326;18.772;2023-12-07T19:53:10;115.80;;;49.10;;
56824;SDS011;42705;50.326;18.772;2023-12-07T19:58:33;108.80;;;47.30;;
56824;SDS011;42705;50.326;18.772;2023-12-07T20:03:57;106.00;;;46.40;;
56824;SDS011;42705;50.326;18.772;2023-12-07T20:09:21;111.90;;;47.10;;
56824;SDS011;42705;50.326;18.772;2023-12-07T20:14:43;113.90;;;46.20;;
56824;SDS011;42705;50.326;18.772;2023-12-07T20:25:29;103.60;;;44.30;;
56824;SDS011;42705;50.326;18.772;2023-12-07T20:30:52;105.20;;;45.20;;
56824;SDS011;42705;50.326;18.772;2023-12-07T20:36:14;106.40;;;45.10;;
56824;SDS011;42705;50.326;18.772;2023-12-07T20:41:36;97.70;;;42.20;;
56824;SDS011;42705;50.326;18.772;2023-12-07T20:46:59;107.00;;;45.90;;
56824;SDS011;42705;50.326;18.772;2023-12-07T20:52:21;105.40;;;46.20;;
56824;SDS011;42705;50.326;18.772;2023-12-07T20:57:44;130.60;;;52.40;;
56824;SDS011;42705;50.326;18.772;2023-12-07T21:03:08;121.30;;;51.60;;
56824;SDS011;42705;50.326;18.772;2023-12-07T21:08:30;132.80;;;53.00;;
56824;SDS011;42705;50.326;18.772;2023-12-07T21:13:52;126.60;;;54.10;;
56824;SDS011;42705;50.326;18.772;2023-12-07T21:19:15;140.00;;;57.90;;
56824;SDS011;42705;50.326;18.772;2023-12-07T21:24:39;148.00;;;58.30;;
56824;SDS011;42705;50.326;18.772;2023-12-07T21:30:01;144.40;;;59.20;;
56824;SDS011;42705;50.326;18.772;2023-12-07T21:40:46;131.40;;;55.60;;
56824;SDS011;42705;50.326;18.772;2023-12-07T21:46:08;142.90;;;56.30;;
56824;SDS011;42705;50.326;18.772;2023-12-07T21:51:30;136.00;;;56.00;;
56824;SDS011;42705;50.326;18.772;2023-12-07T21:56:52;154.80;;;61.00;;
56824;SDS011;42705;50.326;18.772;2023-12-07T22:02:14;133.90;;;55.90;;
56824;SDS011;42705;50.326;18.772;2023-12-07T22:07:36;131.70;;;56.00;;
56824;SDS011;42705;50.326;18.772;2023-12-07T22:12:58;127.60;;;54.60;;
56824;SDS011;42705;50.326;18.772;2023-12-07T22:18:20;137.60;;;54.90;;
56824;SDS011;42705;50.326;18.772;2023-12-07T22:23:42;188.40;;;68.70;;
56824;SDS011;42705;50.326;18.772;2023-12-07T22:29:04;255.30;;;84.10;;
56824;SDS011;42705;50.326;18.772;2023-12-07T22:34:26;214.80;;;76.80;;
56824;SDS011;42705;50.326;18.772;2023-12-07T22:39:48;180.80;;;69.20;;
56824;SDS011;42705;50.326;18.772;2023-12-07T22:45:10;196.90;;;73.00;;
56824;SDS011;42705;50.326;18.772;2023-12-07T22:50:32;209.40;;;76.90;;
56824;SDS011;42705;50.326;18.772;2023-12-07T22:55:54;198.80;;;77.20;;
56824;SDS011;42705;50.326;18.772;2023-12-07T23:01:16;203.90;;;80.10;;
56824;SDS011;42705;50.326;18.772;2023-12-07T23:06:38;218.30;;;75.80;;
56824;SDS011;42705;50.326;18.772;2023-12-07T23:12:00;201.70;;;78.00;;
56824;SDS011;42705;50.326;18.772;2023-12-07T23:17:22;207.10;;;80.70;;
56824;SDS011;42705;50.326;18.772;2023-12-07T23:22:44;200.40;;;77.10;;
56824;SDS011;42705;50.326;18.772;2023-12-07T23:28:06;206.70;;;77.20;;
56824;SDS011;42705;50.326;18.772;2023-12-07T23:33:29;202.30;;;78.70;;
56824;SDS011;42705;50.326;18.772;2023-12-07T23:38:51;204.10;;;73.10;;
56824;SDS011;42705;50.326;18.772;2023-12-07T23:44:13;204.60;;;75.80;;
56824;SDS011;42705;50.326;18.772;2023-12-07T23:49:35;199.00;;;72.40;;
56824;SDS011;42705;50.326;18.772;2023-12-07T23:54:57;184.40;;;73.30;;
